Accueil
METAR-TAF:

METAR-TAF

Aéroports :

Air Force Station

Cape Canaveral, Floride, États-Unis

latitude: 28-28N, longitude: 080-33W, altitude: 3 m

Observation

Le bulletin a été fait il y a 45 minutes, à 07:56 UTC
Vent 5 kt de nord-ouest
Température 23°C
Humidité 94%
Pression 1018 hPa
Visibilité: 16.1 km
Nuages fragmentés à une hauteur de 14000 ft

METAR: KXMR 290756Z AUTO 32005KT 10SM BKN140 23/22 A3005 RMK AO2 LTG DSNT NE SLP179 T02290217 $

Heure: 04:41 (08:41 UTC)


TAF: absent

Observations et prévisions météorologiques de plus de 4000 aéroports (messages METAR et TAF).

Les stations disponibles sont représentées par des disques jaunes et rouges sur la carte.

Passer la souris dessus pour voir le nom de la station.

Cliquer dessus pour voir les observations et prévisions météorologiques.

Pour changer de carte: cliquez sur les boutons verts avec une croix noire pour zoomer, sur le bouton vert avec un tiret pour effectuer un zoom arrière, ou sur les flèches vertes pour les cartes adjacentes.


METAR-TAF: